Time;durP1;ratioP1;P1;durP2;ratioP2;P2;SDS_P1;SDS_P2;PMS_P1;PMS_P2;Temp;Humidity;BMP_temperature;BMP_pressure;BME280_temperature;BME280_humidity;BME280_pressure;Samples;Min_cycle;Max_cycle;Signal;HPM_P1;HPM_P2
2021/05/31 00:01:30;;;;;;;1.95;1.80;;;;;;;;;;5093727;28;20198;-41
2021/05/31 00:03:56;;;;;;;2.08;1.85;;;;;;;;;;5094316;28;20174;-42
2021/05/31 00:06:22;;;;;;;1.75;1.63;;;;;;;;;;5096338;28;20193;-42
2021/05/31 00:08:48;;;;;;;1.77;1.67;;;;;;;;;;5103182;28;20181;-41
2021/05/31 00:11:14;;;;;;;1.88;1.77;;;;;;;;;;5106188;28;20257;-41
2021/05/31 00:13:40;;;;;;;2.13;1.88;;;;;;;;;;5098184;28;20166;-42
2021/05/31 00:16:06;;;;;;;2.05;1.92;;;;;;;;;;5098064;28;20307;-42
2021/05/31 00:18:32;;;;;;;1.70;1.60;;;;;;;;;;5097827;28;20572;-41
2021/05/31 00:20:58;;;;;;;3.20;1.80;;;;;;;;;;5106540;28;20260;-41
2021/05/31 00:23:24;;;;;;;1.80;1.70;;;;;;;;;;5098027;28;20181;-41
2021/05/31 00:25:50;;;;;;;2.38;2.03;;;;;;;;;;5097898;28;20529;-41
2021/05/31 00:28:16;;;;;;;1.77;1.67;;;;;;;;;;5115434;28;20176;-42
2021/05/31 00:30:43;;;;;;;1.67;1.58;;;;;;;;;;5117698;28;20173;-41
2021/05/31 00:33:09;;;;;;;2.03;1.70;;;;;;;;;;5117027;28;20173;-41
2021/05/31 00:35:35;;;;;;;2.13;1.92;;;;;;;;;;5098577;28;20227;-41
2021/05/31 00:38:01;;;;;;;2.20;2.00;;;;;;;;;;5103838;28;20772;-42
2021/05/31 00:40:28;;;;;;;1.83;1.70;;;;;;;;;;5097459;28;20209;-42
2021/05/31 00:42:54;;;;;;;1.75;1.65;;;;;;;;;;5097519;28;20166;-41
2021/05/31 00:45:21;;;;;;;1.77;1.50;;;;;;;;;;5097092;28;20504;-41
2021/05/31 00:47:47;;;;;;;1.92;1.73;;;;;;;;;;5104467;28;20443;-41
2021/05/31 00:50:14;;;;;;;1.80;1.70;;;;;;;;;;5097421;28;20166;-41
2021/05/31 00:52:40;;;;;;;2.53;1.85;;;;;;;;;;5096980;28;20170;-41
2021/05/31 00:55:07;;;;;;;1.63;1.52;;;;;;;;;;5097144;28;20174;-41
2021/05/31 00:57:33;;;;;;;1.83;1.48;;;;;;;;;;5108470;28;20578;-42
2021/05/31 00:59:59;;;;;;;1.40;1.30;;;;;;;;;;5107632;28;20189;-41
2021/05/31 01:02:25;;;;;;;1.63;1.52;;;;;;;;;;5105407;28;20207;-41
2021/05/31 01:04:51;;;;;;;2.15;1.50;;;;;;;;;;5114639;28;20252;-42
2021/05/31 01:07:46;;;;;;;1.58;1.48;;;;;;;;;;5117610;28;20782;-42
2021/05/31 01:10:18;;;;;;;1.80;1.70;;;;;;;;;;5094622;28;20177;-41
2021/05/31 01:12:59;;;;;;;2.33;1.60;;;;;;;;;;5093726;28;20208;-42
2021/05/31 01:15:38;;;;;;;1.60;1.50;;;;;;;;;;5106341;28;20169;-41
2021/05/31 01:18:13;;;;;;;1.73;1.63;;;;;;;;;;5115355;28;20173;-41
2021/05/31 01:20:58;;;;;;;1.60;1.50;;;;;;;;;;5116770;28;20260;-41
2021/05/31 01:23:28;;;;;;;1.73;1.63;;;;;;;;;;5117005;28;20181;-41
2021/05/31 01:26:08;;;;;;;1.60;1.50;;;;;;;;;;5110343;28;20166;-41
2021/05/31 01:28:34;;;;;;;1.80;1.70;;;;;;;;;;5096493;28;20192;-41
2021/05/31 01:31:02;;;;;;;1.33;1.23;;;;;;;;;;5108710;28;20193;-42
2021/05/31 01:33:30;;;;;;;1.63;1.52;;;;;;;;;;5097447;28;20275;-41
2021/05/31 01:35:57;;;;;;;2.00;1.63;;;;;;;;;;5096616;28;20184;-41
2021/05/31 01:38:23;;;;;;;1.38;1.27;;;;;;;;;;5096312;28;20173;-41
2021/05/31 01:40:50;;;;;;;1.80;1.70;;;;;;;;;;5096955;28;20178;-42
2021/05/31 01:43:17;;;;;;;1.52;1.30;;;;;;;;;;5096224;28;20206;-42
2021/05/31 01:45:43;;;;;;;1.50;1.40;;;;;;;;;;5115155;28;20511;-42
2021/05/31 01:48:10;;;;;;;1.75;1.65;;;;;;;;;;5097767;28;20181;-42
2021/05/31 01:50:36;;;;;;;1.40;1.30;;;;;;;;;;5095871;28;20200;-42
2021/05/31 01:53:04;;;;;;;1.50;1.40;;;;;;;;;;5096286;28;20169;-42
2021/05/31 01:55:30;;;;;;;1.50;1.40;;;;;;;;;;5096241;28;20162;-42
2021/05/31 01:57:56;;;;;;;1.63;1.48;;;;;;;;;;5096255;28;20276;-42
2021/05/31 02:00:22;;;;;;;1.60;1.50;;;;;;;;;;5095649;28;20206;-42
2021/05/31 02:02:49;;;;;;;1.30;1.20;;;;;;;;;;5097107;28;20267;-42
2021/05/31 02:05:15;;;;;;;1.60;1.50;;;;;;;;;;5096115;28;20181;-42
2021/05/31 02:07:41;;;;;;;1.58;1.42;;;;;;;;;;5095742;28;20177;-42
2021/05/31 02:10:08;;;;;;;1.25;1.15;;;;;;;;;;5096059;28;20177;-42
2021/05/31 02:12:57;;;;;;;1.50;1.40;;;;;;;;;;5095547;28;20209;-42
2021/05/31 02:15:36;;;;;;;1.42;1.33;;;;;;;;;;5084633;28;20491;-42
2021/05/31 02:18:02;;;;;;;1.50;1.40;;;;;;;;;;5102677;28;20176;-42
2021/05/31 02:20:29;;;;;;;1.65;1.27;;;;;;;;;;5113582;28;20197;-42
2021/05/31 02:22:57;;;;;;;1.40;1.23;;;;;;;;;;5102510;28;20176;-42
2021/05/31 02:25:23;;;;;;;1.45;1.35;;;;;;;;;;5108860;28;20177;-42
2021/05/31 02:27:50;;;;;;;1.52;1.42;;;;;;;;;;5078260;28;20184;-42
2021/05/31 02:30:17;;;;;;;1.70;1.55;;;;;;;;;;5095447;28;20170;-42
2021/05/31 02:32:50;;;;;;;1.40;1.30;;;;;;;;;;5074762;28;20497;-42
2021/05/31 02:35:16;;;;;;;1.33;1.23;;;;;;;;;;5085453;28;20182;-42
2021/05/31 02:37:42;;;;;;;1.30;1.20;;;;;;;;;;5101222;28;20559;-42
2021/05/31 02:40:09;;;;;;;1.30;1.20;;;;;;;;;;5111540;28;20209;-42
2021/05/31 02:42:38;;;;;;;1.40;1.30;;;;;;;;;;5113920;28;20188;-42
2021/05/31 02:45:05;;;;;;;1.55;1.20;;;;;;;;;;5105842;28;20609;-42
2021/05/31 02:47:31;;;;;;;1.33;1.20;;;;;;;;;;5105008;28;20552;-42
2021/05/31 02:49:57;;;;;;;1.13;1.02;;;;;;;;;;5096138;28;20182;-42
2021/05/31 02:52:22;;;;;;;1.13;1.10;;;;;;;;;;5111714;28;20546;-42
2021/05/31 02:54:49;;;;;;;1.48;1.38;;;;;;;;;;5103649;28;20192;-42
2021/05/31 02:57:14;;;;;;;1.27;1.17;;;;;;;;;;5109328;28;20222;-42
2021/05/31 02:59:40;;;;;;;1.20;1.10;;;;;;;;;;5105097;28;20213;-42
2021/05/31 03:02:06;;;;;;;1.70;1.23;;;;;;;;;;5099756;28;20460;-42
2021/05/31 03:04:32;;;;;;;1.40;1.30;;;;;;;;;;5095162;28;20181;-42
2021/05/31 03:06:58;;;;;;;1.48;1.38;;;;;;;;;;5103156;28;20191;-42
2021/05/31 03:09:24;;;;;;;1.45;1.20;;;;;;;;;;5097596;28;20188;-42
2021/05/31 03:11:50;;;;;;;1.30;1.20;;;;;;;;;;5105027;28;20184;-42
2021/05/31 03:14:17;;;;;;;1.00;1.00;;;;;;;;;;5115127;28;20587;-42
2021/05/31 03:16:43;;;;;;;1.40;1.30;;;;;;;;;;5074766;28;20175;-42
2021/05/31 03:19:09;;;;;;;1.13;1.10;;;;;;;;;;5074660;28;20572;-42
2021/05/31 03:21:35;;;;;;;1.40;1.30;;;;;;;;;;5084376;28;20178;-42
2021/05/31 03:24:01;;;;;;;1.15;1.10;;;;;;;;;;5104510;28;20251;-42
2021/05/31 03:26:27;;;;;;;1.20;1.10;;;;;;;;;;5095023;28;20264;-42
2021/05/31 03:28:53;;;;;;;1.40;1.30;;;;;;;;;;5094990;28;20174;-42
2021/05/31 03:31:19;;;;;;;1.13;1.02;;;;;;;;;;5101455;28;20271;-42
2021/05/31 03:33:45;;;;;;;1.10;1.10;;;;;;;;;;5113498;28;20199;-42
2021/05/31 03:36:11;;;;;;;1.17;1.10;;;;;;;;;;5111818;28;20728;-42
2021/05/31 03:38:37;;;;;;;1.08;1.05;;;;;;;;;;5115065;28;20320;-42
2021/05/31 03:41:03;;;;;;;1.23;1.10;;;;;;;;;;5111506;28;20181;-42
2021/05/31 03:43:29;;;;;;;0.93;0.93;;;;;;;;;;5106590;28;20475;-42
2021/05/31 03:45:55;;;;;;;1.08;0.98;;;;;;;;;;5119198;28;20169;-42
2021/05/31 03:48:21;;;;;;;0.98;0.98;;;;;;;;;;5107312;28;20838;-42
2021/05/31 03:50:47;;;;;;;1.30;1.20;;;;;;;;;;5080495;28;20249;-42
2021/05/31 03:53:13;;;;;;;1.00;1.00;;;;;;;;;;5098641;28;20256;-42
2021/05/31 03:55:39;;;;;;;1.13;1.10;;;;;;;;;;5101514;28;20730;-42
2021/05/31 03:58:05;;;;;;;1.00;1.00;;;;;;;;;;5119085;28;20177;-42
2021/05/31 04:00:31;;;;;;;1.48;1.00;;;;;;;;;;5106499;28;20209;-42
2021/05/31 04:02:57;;;;;;;1.05;1.05;;;;;;;;;;5110451;28;20224;-42
2021/05/31 04:05:28;;;;;;;0.88;0.88;;;;;;;;;;5098263;28;20500;-42
2021/05/31 04:13:25;;;;;;;1.08;1.08;;;;;;;;;;5101037;28;20288;-42
2021/05/31 04:15:51;;;;;;;1.30;1.08;;;;;;;;;;5097802;28;20248;-42
2021/05/31 04:18:17;;;;;;;1.00;1.00;;;;;;;;;;5098151;28;20460;-42
2021/05/31 04:20:43;;;;;;;0.98;0.98;;;;;;;;;;5098061;28;20173;-42
2021/05/31 04:23:09;;;;;;;2.70;1.30;;;;;;;;;;5098259;28;20180;-41
2021/05/31 04:25:35;;;;;;;7.68;2.20;;;;;;;;;;5103511;28;20267;-42
2021/05/31 04:28:01;;;;;;;8.80;2.83;;;;;;;;;;5097611;28;20170;-42
2021/05/31 04:30:27;;;;;;;11.82;3.50;;;;;;;;;;5097534;28;20174;-42
2021/05/31 04:32:53;;;;;;;14.38;3.10;;;;;;;;;;5097670;28;20556;-43
2021/05/31 04:35:19;;;;;;;14.90;3.38;;;;;;;;;;5100502;28;20212;-42
2021/05/31 04:37:45;;;;;;;8.38;3.17;;;;;;;;;;5099235;28;20216;-42
2021/05/31 04:40:11;;;;;;;9.18;3.42;;;;;;;;;;5097552;28;20206;-42
2021/05/31 04:42:37;;;;;;;7.95;2.80;;;;;;;;;;5079979;28;20607;-42
2021/05/31 04:45:04;;;;;;;9.90;2.90;;;;;;;;;;5099185;28;20186;-42
2021/05/31 04:47:30;;;;;;;9.80;3.03;;;;;;;;;;5105635;28;20190;-42
2021/05/31 04:49:56;;;;;;;7.20;3.20;;;;;;;;;;5097563;28;20197;-42
2021/05/31 04:52:22;;;;;;;6.45;2.80;;;;;;;;;;5113677;28;20213;-42
2021/05/31 04:54:49;;;;;;;8.70;3.30;;;;;;;;;;5099102;28;20433;-42
2021/05/31 04:57:15;;;;;;;8.52;3.03;;;;;;;;;;5097442;28;20177;-42
2021/05/31 04:59:41;;;;;;;8.18;3.20;;;;;;;;;;5096077;28;20200;-42
2021/05/31 05:02:07;;;;;;;6.43;2.35;;;;;;;;;;5097638;28;20235;-42
2021/05/31 05:04:33;;;;;;;9.60;2.60;;;;;;;;;;5097177;28;20537;-42
2021/05/31 05:06:59;;;;;;;6.65;2.92;;;;;;;;;;5102197;28;20181;-42
2021/05/31 05:09:25;;;;;;;6.18;2.95;;;;;;;;;;5096924;28;20174;-42
2021/05/31 05:11:51;;;;;;;9.13;2.38;;;;;;;;;;5102257;28;20181;-42
2021/05/31 05:14:18;;;;;;;6.72;2.95;;;;;;;;;;5109637;28;20188;-42
2021/05/31 05:16:44;;;;;;;7.47;3.30;;;;;;;;;;5103231;28;20176;-42
2021/05/31 05:19:10;;;;;;;7.43;2.63;;;;;;;;;;5117163;28;20204;-42
2021/05/31 05:21:36;;;;;;;8.60;2.75;;;;;;;;;;5110437;28;20453;-42
2021/05/31 05:24:03;;;;;;;5.60;2.42;;;;;;;;;;5110988;28;20181;-42
2021/05/31 05:26:29;;;;;;;5.63;2.33;;;;;;;;;;5079675;28;20170;-42
2021/05/31 05:28:55;;;;;;;4.15;1.90;;;;;;;;;;5116873;28;20169;-42
2021/05/31 05:31:20;;;;;;;5.63;2.45;;;;;;;;;;5116603;28;20252;-42
2021/05/31 05:33:46;;;;;;;6.00;2.58;;;;;;;;;;5116663;28;20170;-42
2021/05/31 05:41:34;;;;;;;5.00;2.17;;;;;;;;;;5105338;28;20223;-42
2021/05/31 05:49:30;;;;;;;6.47;2.17;;;;;;;;;;5105671;28;20226;-42
2021/05/31 05:51:56;;;;;;;3.92;2.20;;;;;;;;;;5115850;28;20169;-42
2021/05/31 05:54:22;;;;;;;5.95;2.22;;;;;;;;;;5114234;28;20463;-42
2021/05/31 05:56:48;;;;;;;4.65;2.05;;;;;;;;;;5096034;28;20192;-42
2021/05/31 05:59:14;;;;;;;4.32;2.20;;;;;;;;;;5095917;28;20275;-42
2021/05/31 06:01:41;;;;;;;5.53;2.22;;;;;;;;;;5097057;28;20524;-42
2021/05/31 06:04:07;;;;;;;2.80;2.03;;;;;;;;;;5094382;28;20440;-42
2021/05/31 06:06:33;;;;;;;3.97;2.25;;;;;;;;;;5094419;28;20177;-42
2021/05/31 06:08:59;;;;;;;5.72;2.33;;;;;;;;;;5101984;28;20177;-42
2021/05/31 06:11:25;;;;;;;5.38;1.90;;;;;;;;;;5099476;28;20515;-42
2021/05/31 06:13:52;;;;;;;5.10;1.90;;;;;;;;;;5095591;28;20549;-41
2021/05/31 06:16:18;;;;;;;3.55;2.10;;;;;;;;;;5095883;28;20460;-42
2021/05/31 06:18:44;;;;;;;4.07;1.80;;;;;;;;;;5095337;28;20238;-42
2021/05/31 06:21:10;;;;;;;4.15;1.90;;;;;;;;;;5095249;28;20239;-42
2021/05/31 06:23:36;;;;;;;5.28;1.90;;;;;;;;;;5108806;28;20269;-42
2021/05/31 06:26:02;;;;;;;2.35;1.83;;;;;;;;;;5096675;28;20218;-42
2021/05/31 06:28:28;;;;;;;6.15;2.13;;;;;;;;;;5098288;28;20186;-42
2021/05/31 06:30:54;;;;;;;2.25;1.70;;;;;;;;;;5097969;28;20248;-42
2021/05/31 06:33:21;;;;;;;3.90;1.90;;;;;;;;;;5093693;28;20219;-41
2021/05/31 06:35:49;;;;;;;4.18;1.70;;;;;;;;;;5103761;28;20181;-42
2021/05/31 06:38:15;;;;;;;2.90;1.58;;;;;;;;;;5095547;28;20208;-42
2021/05/31 06:40:41;;;;;;;4.18;1.98;;;;;;;;;;5107464;28;20196;-42
2021/05/31 06:43:08;;;;;;;3.13;1.83;;;;;;;;;;5112376;28;20185;-42
2021/05/31 06:45:34;;;;;;;7.22;2.33;;;;;;;;;;5110450;28;20205;-42
2021/05/31 06:48:02;;;;;;;3.53;1.58;;;;;;;;;;5107332;28;20201;-41
2021/05/31 06:50:29;;;;;;;5.10;2.05;;;;;;;;;;5094286;28;20564;-42
2021/05/31 06:52:55;;;;;;;4.07;1.67;;;;;;;;;;5093408;28;20228;-42
2021/05/31 06:55:22;;;;;;;2.85;1.60;;;;;;;;;;5093405;28;20184;-42
2021/05/31 06:57:50;;;;;;;4.18;1.90;;;;;;;;;;5093557;28;20257;-42
2021/05/31 07:00:17;;;;;;;4.63;1.42;;;;;;;;;;5093404;28;20200;-42
2021/05/31 07:02:43;;;;;;;2.35;1.50;;;;;;;;;;5092673;28;20202;-42
2021/05/31 07:05:09;;;;;;;4.57;1.88;;;;;;;;;;5093225;28;20227;-42
2021/05/31 07:07:36;;;;;;;2.55;1.70;;;;;;;;;;5094609;28;20186;-42
2021/05/31 07:10:03;;;;;;;2.47;1.55;;;;;;;;;;5095077;28;20170;-42
2021/05/31 07:12:29;;;;;;;3.58;1.98;;;;;;;;;;5094516;28;20679;-42
2021/05/31 07:14:56;;;;;;;3.30;1.40;;;;;;;;;;5094670;28;20173;-42
2021/05/31 07:17:22;;;;;;;5.90;1.70;;;;;;;;;;5094840;28;20170;-41
2021/05/31 07:19:48;;;;;;;3.33;1.60;;;;;;;;;;5099042;28;20196;-42
2021/05/31 07:22:15;;;;;;;4.10;1.60;;;;;;;;;;5101732;28;20210;-42
2021/05/31 07:24:41;;;;;;;4.38;1.60;;;;;;;;;;5074605;28;20663;-42
2021/05/31 07:27:07;;;;;;;3.15;2.08;;;;;;;;;;5074794;28;20518;-42
2021/05/31 07:29:33;;;;;;;2.40;1.60;;;;;;;;;;5094454;28;20198;-42
2021/05/31 07:31:59;;;;;;;2.55;1.40;;;;;;;;;;5103688;28;20694;-42
2021/05/31 07:34:25;;;;;;;3.30;1.40;;;;;;;;;;5107008;28;20185;-42
2021/05/31 07:36:52;;;;;;;4.00;1.83;;;;;;;;;;5094571;28;20189;-42
2021/05/31 07:39:18;;;;;;;4.70;1.88;;;;;;;;;;5093354;28;20200;-42
2021/05/31 07:41:44;;;;;;;1.95;1.60;;;;;;;;;;5094551;28;20184;-42
2021/05/31 07:44:10;;;;;;;3.15;1.65;;;;;;;;;;5094224;28;20595;-42
2021/05/31 07:46:36;;;;;;;2.67;1.50;;;;;;;;;;5094284;28;20197;-42
2021/05/31 07:49:02;;;;;;;3.85;1.52;;;;;;;;;;5094980;28;20223;-42
2021/05/31 07:51:31;;;;;;;3.90;1.50;;;;;;;;;;5094755;28;20178;-42
2021/05/31 07:53:57;;;;;;;2.15;1.25;;;;;;;;;;5094410;28;20170;-42
2021/05/31 07:56:26;;;;;;;2.15;1.60;;;;;;;;;;5094489;28;20254;-42
2021/05/31 07:58:52;;;;;;;3.00;1.73;;;;;;;;;;5094055;28;20204;-42
2021/05/31 08:01:18;;;;;;;2.78;1.15;;;;;;;;;;5093149;28;20185;-42
2021/05/31 08:03:46;;;;;;;1.65;1.48;;;;;;;;;;5094226;28;20193;-42
2021/05/31 08:06:12;;;;;;;2.67;1.35;;;;;;;;;;5093720;28;20496;-42
2021/05/31 08:08:39;;;;;;;3.08;1.63;;;;;;;;;;5095981;28;20543;-42
2021/05/31 08:11:06;;;;;;;2.58;1.33;;;;;;;;;;5093639;28;20982;-41
2021/05/31 08:13:32;;;;;;;3.28;1.58;;;;;;;;;;5094063;28;20166;-42
2021/05/31 08:15:58;;;;;;;2.28;1.45;;;;;;;;;;5097243;28;20608;-42
2021/05/31 08:18:24;;;;;;;2.25;1.40;;;;;;;;;;5107650;28;20186;-42
2021/05/31 08:20:51;;;;;;;3.10;1.33;;;;;;;;;;5093546;28;20429;-42
2021/05/31 08:23:17;;;;;;;1.65;1.33;;;;;;;;;;5093048;28;20178;-42
2021/05/31 08:25:46;;;;;;;3.47;1.60;;;;;;;;;;5094108;28;20170;-42
2021/05/31 08:28:12;;;;;;;3.25;1.50;;;;;;;;;;5097535;28;20181;-42
2021/05/31 08:30:40;;;;;;;1.77;1.20;;;;;;;;;;5097324;28;20170;-42
2021/05/31 08:33:07;;;;;;;2.65;1.20;;;;;;;;;;5097855;28;20247;-42
2021/05/31 08:35:33;;;;;;;1.42;1.33;;;;;;;;;;5097507;28;20162;-42
2021/05/31 08:37:59;;;;;;;3.80;1.52;;;;;;;;;;5097662;28;20173;-42
2021/05/31 08:40:26;;;;;;;4.13;1.88;;;;;;;;;;5096891;28;20204;-41
2021/05/31 08:42:52;;;;;;;1.67;1.38;;;;;;;;;;5097347;28;20166;-42
2021/05/31 08:45:20;;;;;;;1.65;1.20;;;;;;;;;;5098532;28;20259;-42
2021/05/31 08:47:47;;;;;;;1.85;1.38;;;;;;;;;;5109262;28;20185;-42
2021/05/31 08:50:14;;;;;;;1.20;1.00;;;;;;;;;;5097475;28;20220;-42
2021/05/31 08:52:41;;;;;;;1.73;1.25;;;;;;;;;;5097053;28;20179;-41
2021/05/31 08:55:11;;;;;;;2.05;1.23;;;;;;;;;;5116180;28;20185;-42
2021/05/31 08:57:37;;;;;;;1.30;1.20;;;;;;;;;;5100899;28;20516;-42
2021/05/31 09:00:05;;;;;;;1.90;1.23;;;;;;;;;;5104841;28;20212;-41
2021/05/31 09:02:33;;;;;;;4.05;1.60;;;;;;;;;;5105180;28;20181;-42
2021/05/31 09:04:59;;;;;;;1.65;1.27;;;;;;;;;;5100716;28;20587;-42
2021/05/31 09:07:25;;;;;;;1.83;1.50;;;;;;;;;;5105580;28;20178;-42
2021/05/31 09:09:55;;;;;;;1.33;1.23;;;;;;;;;;5096655;28;20216;-42
2021/05/31 09:12:23;;;;;;;2.35;1.15;;;;;;;;;;5097430;28;20492;-42
2021/05/31 09:15:15;;;;;;;3.65;1.20;;;;;;;;;;5112195;28;20912;-42
2021/05/31 09:17:41;;;;;;;1.77;1.30;;;;;;;;;;5097098;28;20193;-42
2021/05/31 09:20:08;;;;;;;1.58;1.42;;;;;;;;;;5099689;28;20296;-42
2021/05/31 09:22:47;;;;;;;1.83;1.30;;;;;;;;;;5105128;28;20424;-42
2021/05/31 09:25:23;;;;;;;3.80;1.42;;;;;;;;;;5096515;28;20174;-42
2021/05/31 09:27:53;;;;;;;1.45;1.35;;;;;;;;;;5076628;28;20162;-42
2021/05/31 09:30:20;;;;;;;2.88;1.48;;;;;;;;;;5076293;28;20500;-42
2021/05/31 09:32:51;;;;;;;4.53;1.10;;;;;;;;;;5086601;28;20209;-42
2021/05/31 09:35:20;;;;;;;2.17;1.13;;;;;;;;;;5099669;28;20181;-42
2021/05/31 09:37:48;;;;;;;3.50;1.20;;;;;;;;;;5096273;28;20177;-42
2021/05/31 09:40:22;;;;;;;2.13;1.10;;;;;;;;;;5096440;28;20220;-42
2021/05/31 09:42:52;;;;;;;2.78;1.02;;;;;;;;;;5096030;28;20252;-42
2021/05/31 09:45:19;;;;;;;2.30;1.05;;;;;;;;;;5096346;28;20196;-42
2021/05/31 09:47:45;;;;;;;2.75;1.20;;;;;;;;;;5096262;28;20197;-42
2021/05/31 09:50:11;;;;;;;1.80;1.27;;;;;;;;;;5108239;28;20260;-42
2021/05/31 09:52:37;;;;;;;1.30;1.20;;;;;;;;;;5107930;28;20297;-42
2021/05/31 09:55:05;;;;;;;2.63;1.38;;;;;;;;;;5113721;28;20179;-42
2021/05/31 09:57:32;;;;;;;1.20;1.10;;;;;;;;;;5116153;28;20169;-42
2021/05/31 10:00:00;;;;;;;2.35;1.17;;;;;;;;;;5096329;28;20202;-42
2021/05/31 10:02:39;;;;;;;2.78;1.13;;;;;;;;;;5112763;28;20177;-42
2021/05/31 10:05:58;;;;;;;2.35;1.20;;;;;;;;;;5111449;28;20610;-42
2021/05/31 10:10:22;;;;;;;3.70;1.30;;;;;;;;;;5109996;28;20200;-41
2021/05/31 10:12:48;;;;;;;2.55;1.20;;;;;;;;;;5100888;28;20451;-42
2021/05/31 10:15:16;;;;;;;2.70;1.23;;;;;;;;;;5101599;28;20173;-41
2021/05/31 10:17:42;;;;;;;4.93;1.40;;;;;;;;;;5096051;28;20716;-42
2021/05/31 10:20:09;;;;;;;4.80;1.30;;;;;;;;;;5110544;28;20228;-42
2021/05/31 10:22:36;;;;;;;3.47;1.50;;;;;;;;;;5102878;28;20852;-42
2021/05/31 10:25:04;;;;;;;2.95;1.45;;;;;;;;;;5108777;28;20522;-42
2021/05/31 10:27:31;;;;;;;2.25;1.50;;;;;;;;;;5107871;28;20198;-42
2021/05/31 10:29:58;;;;;;;1.98;1.40;;;;;;;;;;5095631;28;20170;-42
2021/05/31 10:32:25;;;;;;;2.78;1.50;;;;;;;;;;5094979;28;20181;-42
2021/05/31 10:34:55;;;;;;;3.22;1.42;;;;;;;;;;5095271;28;20572;-42
2021/05/31 10:37:23;;;;;;;1.77;1.30;;;;;;;;;;5095395;28;20420;-42
2021/05/31 10:39:57;;;;;;;1.85;1.20;;;;;;;;;;5095344;28;20675;-42
2021/05/31 10:42:24;;;;;;;1.50;1.20;;;;;;;;;;5094732;28;20184;-42
2021/05/31 10:44:50;;;;;;;4.25;1.50;;;;;;;;;;5095440;28;20564;-42
2021/05/31 10:47:25;;;;;;;2.63;1.48;;;;;;;;;;5095279;28;20572;-42
2021/05/31 10:49:57;;;;;;;2.97;1.40;;;;;;;;;;5094750;28;20277;-42
2021/05/31 10:52:23;;;;;;;2.47;1.50;;;;;;;;;;5094689;28;20169;-42
2021/05/31 10:54:50;;;;;;;4.75;1.77;;;;;;;;;;5095216;28;20260;-42
2021/05/31 10:57:16;;;;;;;3.00;1.65;;;;;;;;;;5095166;28;20503;-42
2021/05/31 10:59:49;;;;;;;4.13;1.90;;;;;;;;;;5095029;28;20244;-42
2021/05/31 11:02:26;;;;;;;3.78;1.60;;;;;;;;;;5094265;28;20607;-42
2021/05/31 11:04:52;;;;;;;3.30;1.48;;;;;;;;;;5094918;28;20165;-42
2021/05/31 11:07:25;;;;;;;2.50;1.70;;;;;;;;;;5095256;28;20466;-42
2021/05/31 11:09:51;;;;;;;3.25;1.70;;;;;;;;;;5094570;28;20185;-42
2021/05/31 11:12:27;;;;;;;3.38;1.90;;;;;;;;;;5094124;28;20277;-42
2021/05/31 11:14:53;;;;;;;2.03;1.70;;;;;;;;;;5095128;28;20249;-42
2021/05/31 11:17:19;;;;;;;2.55;1.73;;;;;;;;;;5094862;28;20177;-42
2021/05/31 11:19:47;;;;;;;2.08;1.55;;;;;;;;;;5094746;28;20209;-42
2021/05/31 11:22:26;;;;;;;3.13;1.60;;;;;;;;;;5093698;28;20697;-42
2021/05/31 11:24:57;;;;;;;2.15;1.65;;;;;;;;;;5094642;28;20169;-42
2021/05/31 11:27:23;;;;;;;3.60;1.85;;;;;;;;;;5094589;28;20571;-42
2021/05/31 11:29:50;;;;;;;3.88;1.83;;;;;;;;;;5095502;28;20183;-42
2021/05/31 11:32:19;;;;;;;1.98;1.55;;;;;;;;;;5096717;28;20523;-42
2021/05/31 11:34:52;;;;;;;1.83;1.70;;;;;;;;;;5100681;28;20231;-42
2021/05/31 11:37:22;;;;;;;2.08;1.65;;;;;;;;;;5098068;28;20181;-42
2021/05/31 11:39:48;;;;;;;2.97;2.00;;;;;;;;;;5095566;28;20302;-42
2021/05/31 11:42:14;;;;;;;4.43;1.60;;;;;;;;;;5099844;28;20192;-42
2021/05/31 11:44:40;;;;;;;2.78;1.73;;;;;;;;;;5108396;28;20256;-42
2021/05/31 11:47:06;;;;;;;2.33;1.70;;;;;;;;;;5112959;28;20541;-42
2021/05/31 11:49:38;;;;;;;4.57;2.08;;;;;;;;;;5095306;28;20231;-42
2021/05/31 11:52:06;;;;;;;1.95;1.70;;;;;;;;;;5095045;28;20285;-42
2021/05/31 11:54:33;;;;;;;2.80;1.60;;;;;;;;;;5097614;28;20173;-42
2021/05/31 11:57:00;;;;;;;2.90;2.00;;;;;;;;;;5113162;28;20282;-42
2021/05/31 11:59:31;;;;;;;1.90;1.70;;;;;;;;;;5099629;28;20202;-42
2021/05/31 12:01:57;;;;;;;3.30;1.50;;;;;;;;;;5095535;28;20219;-42
2021/05/31 12:04:27;;;;;;;1.80;1.70;;;;;;;;;;5103729;28;20182;-42
2021/05/31 12:07:00;;;;;;;2.40;1.70;;;;;;;;;;5117138;28;20189;-42
2021/05/31 12:09:26;;;;;;;2.13;1.55;;;;;;;;;;5118652;28;20176;-42
2021/05/31 12:11:52;;;;;;;3.75;1.90;;;;;;;;;;5101930;28;20173;-42
2021/05/31 12:14:22;;;;;;;2.70;2.00;;;;;;;;;;5099769;28;20173;-42
2021/05/31 12:16:58;;;;;;;2.15;1.50;;;;;;;;;;5102524;28;20241;-42
2021/05/31 12:19:28;;;;;;;1.80;1.70;;;;;;;;;;5102442;28;20599;-42
2021/05/31 12:21:58;;;;;;;3.75;1.80;;;;;;;;;;5097703;28;20572;-42
2021/05/31 12:24:28;;;;;;;2.20;1.85;;;;;;;;;;5099320;28;20173;-42
2021/05/31 12:26:56;;;;;;;1.85;1.50;;;;;;;;;;5111203;28;20260;-42
2021/05/31 12:29:31;;;;;;;1.65;1.55;;;;;;;;;;5097970;28;20305;-42
2021/05/31 12:31:57;;;;;;;2.63;2.00;;;;;;;;;;5104685;28;21575;-42
2021/05/31 12:34:26;;;;;;;1.95;1.70;;;;;;;;;;5104143;28;20182;-42
2021/05/31 12:36:55;;;;;;;3.30;1.98;;;;;;;;;;5110289;28;20170;-42
2021/05/31 12:39:22;;;;;;;2.90;1.73;;;;;;;;;;5097601;28;20664;-42
2021/05/31 12:41:48;;;;;;;2.30;1.70;;;;;;;;;;5096836;28;20452;-42
2021/05/31 12:44:15;;;;;;;2.10;1.90;;;;;;;;;;5109482;28;20170;-42
2021/05/31 12:46:42;;;;;;;5.95;1.92;;;;;;;;;;5109542;28;20189;-42
2021/05/31 12:49:08;;;;;;;1.98;1.48;;;;;;;;;;5097785;28;20196;-42
2021/05/31 12:51:37;;;;;;;3.38;1.70;;;;;;;;;;5097908;28;20442;-42
2021/05/31 12:54:04;;;;;;;4.00;1.95;;;;;;;;;;5111957;28;20166;-42
2021/05/31 12:56:31;;;;;;;2.92;1.80;;;;;;;;;;5097164;28;20178;-42
2021/05/31 12:59:05;;;;;;;5.97;2.05;;;;;;;;;;5097216;28;20190;-42
2021/05/31 13:01:32;;;;;;;4.53;1.80;;;;;;;;;;5096888;28;20162;-42
2021/05/31 13:03:58;;;;;;;1.65;1.52;;;;;;;;;;5096968;28;20265;-42
2021/05/31 13:06:34;;;;;;;2.30;1.67;;;;;;;;;;5097211;28;20550;-42
2021/05/31 13:09:00;;;;;;;2.97;1.42;;;;;;;;;;5097039;28;20268;-42
2021/05/31 13:11:26;;;;;;;3.13;1.45;;;;;;;;;;5096383;28;20256;-42
2021/05/31 13:13:54;;;;;;;1.40;1.30;;;;;;;;;;5096831;28;20261;-42
2021/05/31 13:16:27;;;;;;;1.35;1.25;;;;;;;;;;5097017;28;20170;-42
2021/05/31 13:18:53;;;;;;;3.25;1.40;;;;;;;;;;5096895;28;20213;-42
2021/05/31 13:21:19;;;;;;;3.78;1.70;;;;;;;;;;5096046;28;20549;-42
2021/05/31 13:23:51;;;;;;;2.90;1.50;;;;;;;;;;5096544;28;20181;-42
2021/05/31 13:26:24;;;;;;;2.13;1.40;;;;;;;;;;5076744;28;20167;-42
2021/05/31 13:28:57;;;;;;;1.77;1.35;;;;;;;;;;5076558;28;20194;-42
2021/05/31 13:31:23;;;;;;;2.33;1.50;;;;;;;;;;5075971;28;20486;-42
2021/05/31 13:33:50;;;;;;;5.90;1.52;;;;;;;;;;5076477;28;20235;-42
2021/05/31 13:36:18;;;;;;;3.03;1.30;;;;;;;;;;5090911;28;20214;-42
2021/05/31 13:38:43;;;;;;;1.85;1.52;;;;;;;;;;5096306;28;20264;-42
2021/05/31 13:41:10;;;;;;;1.67;1.30;;;;;;;;;;5096527;28;20257;-42
2021/05/31 13:43:36;;;;;;;1.35;1.20;;;;;;;;;;5112077;28;20436;-42
2021/05/31 13:46:03;;;;;;;1.65;1.30;;;;;;;;;;5099125;28;20207;-42
2021/05/31 13:48:30;;;;;;;1.67;1.58;;;;;;;;;;5109430;28;20178;-42
2021/05/31 13:50:57;;;;;;;1.40;1.27;;;;;;;;;;5095542;28;20209;-42
2021/05/31 13:53:24;;;;;;;1.25;1.15;;;;;;;;;;5096261;28;20194;-42
2021/05/31 13:55:50;;;;;;;3.75;1.60;;;;;;;;;;5096188;28;20170;-42
2021/05/31 13:58:16;;;;;;;1.50;1.40;;;;;;;;;;5095969;28;20246;-42
2021/05/31 14:00:42;;;;;;;1.50;1.40;;;;;;;;;;5095940;28;20248;-42
2021/05/31 14:03:09;;;;;;;2.13;1.60;;;;;;;;;;5095772;28;20890;-42
2021/05/31 14:05:36;;;;;;;2.35;1.38;;;;;;;;;;5095584;28;20170;-42
2021/05/31 14:08:03;;;;;;;1.58;1.48;;;;;;;;;;5096092;28;20521;-42
2021/05/31 14:10:30;;;;;;;2.22;1.60;;;;;;;;;;5095328;28;20185;-42
2021/05/31 14:12:58;;;;;;;1.42;1.30;;;;;;;;;;5097660;28;20177;-42
2021/05/31 14:15:24;;;;;;;1.50;1.40;;;;;;;;;;5102062;28;20181;-42
2021/05/31 14:17:51;;;;;;;1.30;1.20;;;;;;;;;;5097439;28;20189;-42
2021/05/31 14:20:17;;;;;;;1.40;1.20;;;;;;;;;;5095860;28;20206;-42
2021/05/31 14:22:44;;;;;;;1.25;1.15;;;;;;;;;;5095232;28;20174;-42
2021/05/31 14:25:11;;;;;;;2.28;1.20;;;;;;;;;;5089858;28;20170;-42
2021/05/31 14:27:37;;;;;;;1.13;1.10;;;;;;;;;;5106339;28;20177;-42
2021/05/31 14:30:04;;;;;;;2.30;1.30;;;;;;;;;;5097143;28;20170;-42
2021/05/31 14:32:31;;;;;;;1.42;1.33;;;;;;;;;;5094501;28;20188;-43
2021/05/31 14:34:57;;;;;;;1.42;1.33;;;;;;;;;;5113601;28;20230;-42
2021/05/31 14:37:23;;;;;;;1.38;1.20;;;;;;;;;;5114586;28;20177;-43
2021/05/31 14:39:49;;;;;;;1.52;1.30;;;;;;;;;;5110445;28;20215;-43
2021/05/31 14:42:15;;;;;;;1.40;1.30;;;;;;;;;;5113730;28;20169;-43
2021/05/31 14:44:41;;;;;;;1.65;1.30;;;;;;;;;;5115273;28;20467;-43
2021/05/31 14:47:08;;;;;;;1.45;1.27;;;;;;;;;;5102103;28;20178;-43
2021/05/31 14:49:34;;;;;;;4.28;1.50;;;;;;;;;;5095101;28;20456;-43
2021/05/31 14:52:00;;;;;;;1.25;1.25;;;;;;;;;;5094731;28;20194;-43
2021/05/31 14:54:26;;;;;;;1.17;1.10;;;;;;;;;;5100097;28;20185;-42
2021/05/31 14:56:57;;;;;;;1.30;1.20;;;;;;;;;;5115431;28;20177;-42
2021/05/31 14:59:23;;;;;;;1.50;1.40;;;;;;;;;;5115525;28;20706;-42
2021/05/31 15:01:49;;;;;;;1.17;1.10;;;;;;;;;;5112876;28;20249;-42
2021/05/31 15:04:15;;;;;;;1.38;1.27;;;;;;;;;;5094970;28;20597;-42